sensor_id;sensor_type;location;lat;lon;timestamp;P1;durP1;ratioP1;P2;durP2;ratioP2
22967;SDS011;11650;48.106;-1.696;2023-04-24T00:01:42;11.60;;;4.00;;
22967;SDS011;11650;48.106;-1.696;2023-04-24T00:04:08;12.23;;;3.73;;
22967;SDS011;11650;48.106;-1.696;2023-04-24T00:06:36;15.37;;;4.53;;
22967;SDS011;11650;48.106;-1.696;2023-04-24T00:09:03;9.00;;;4.20;;
22967;SDS011;11650;48.106;-1.696;2023-04-24T00:11:29;11.37;;;4.40;;
22967;SDS011;11650;48.106;-1.696;2023-04-24T00:13:55;9.27;;;3.87;;
22967;SDS011;11650;48.106;-1.696;2023-04-24T00:16:22;9.13;;;4.03;;
22967;SDS011;11650;48.106;-1.696;2023-04-24T00:18:48;12.33;;;4.67;;
22967;SDS011;11650;48.106;-1.696;2023-04-24T00:21:14;11.27;;;4.10;;
22967;SDS011;11650;48.106;-1.696;2023-04-24T00:23:42;10.37;;;4.53;;
22967;SDS011;11650;48.106;-1.696;2023-04-24T00:26:08;10.40;;;4.10;;
22967;SDS011;11650;48.106;-1.696;2023-04-24T00:28:34;11.10;;;3.70;;
22967;SDS011;11650;48.106;-1.696;2023-04-24T00:31:00;8.73;;;4.33;;
22967;SDS011;11650;48.106;-1.696;2023-04-24T00:33:25;10.47;;;4.10;;
22967;SDS011;11650;48.106;-1.696;2023-04-24T00:35:51;13.80;;;4.57;;
22967;SDS011;11650;48.106;-1.696;2023-04-24T00:38:17;7.77;;;4.03;;
22967;SDS011;11650;48.106;-1.696;2023-04-24T00:40:43;12.03;;;4.60;;
22967;SDS011;11650;48.106;-1.696;2023-04-24T00:43:09;8.47;;;4.40;;
22967;SDS011;11650;48.106;-1.696;2023-04-24T00:45:34;9.10;;;4.07;;
22967;SDS011;11650;48.106;-1.696;2023-04-24T00:48:01;13.07;;;4.63;;
22967;SDS011;11650;48.106;-1.696;2023-04-24T00:50:27;10.07;;;4.50;;
22967;SDS011;11650;48.106;-1.696;2023-04-24T00:52:54;9.50;;;4.57;;
22967;SDS011;11650;48.106;-1.696;2023-04-24T00:55:20;7.37;;;3.80;;
22967;SDS011;11650;48.106;-1.696;2023-04-24T00:57:45;9.20;;;3.53;;
22967;SDS011;11650;48.106;-1.696;2023-04-24T01:00:12;8.60;;;4.13;;
22967;SDS011;11650;48.106;-1.696;2023-04-24T01:02:41;10.03;;;4.43;;
22967;SDS011;11650;48.106;-1.696;2023-04-24T01:05:11;11.53;;;4.47;;
22967;SDS011;11650;48.106;-1.696;2023-04-24T01:07:38;13.83;;;5.10;;
22967;SDS011;11650;48.106;-1.696;2023-04-24T01:10:06;9.53;;;4.80;;
22967;SDS011;11650;48.106;-1.696;2023-04-24T01:12:33;17.17;;;4.67;;
22967;SDS011;11650;48.106;-1.696;2023-04-24T01:14:59;18.90;;;5.10;;
22967;SDS011;11650;48.106;-1.696;2023-04-24T01:17:25;11.57;;;4.73;;
22967;SDS011;11650;48.106;-1.696;2023-04-24T01:19:50;12.40;;;5.03;;
22967;SDS011;11650;48.106;-1.696;2023-04-24T01:22:18;12.00;;;4.77;;
22967;SDS011;11650;48.106;-1.696;2023-04-24T01:24:45;9.87;;;5.33;;
22967;SDS011;11650;48.106;-1.696;2023-04-24T01:27:12;11.53;;;4.57;;
22967;SDS011;11650;48.106;-1.696;2023-04-24T01:29:38;13.17;;;4.20;;
22967;SDS011;11650;48.106;-1.696;2023-04-24T01:32:04;12.47;;;4.57;;
22967;SDS011;11650;48.106;-1.696;2023-04-24T01:34:30;10.33;;;4.50;;
22967;SDS011;11650;48.106;-1.696;2023-04-24T01:36:57;11.83;;;4.90;;
22967;SDS011;11650;48.106;-1.696;2023-04-24T01:39:23;16.27;;;4.87;;
22967;SDS011;11650;48.106;-1.696;2023-04-24T01:41:50;14.37;;;5.07;;
22967;SDS011;11650;48.106;-1.696;2023-04-24T01:44:17;13.80;;;5.10;;
22967;SDS011;11650;48.106;-1.696;2023-04-24T01:46:43;12.83;;;4.57;;
22967;SDS011;11650;48.106;-1.696;2023-04-24T01:49:09;14.47;;;4.80;;
22967;SDS011;11650;48.106;-1.696;2023-04-24T01:51:35;10.63;;;4.60;;
22967;SDS011;11650;48.106;-1.696;2023-04-24T01:54:01;11.83;;;4.87;;
22967;SDS011;11650;48.106;-1.696;2023-04-24T01:56:30;17.73;;;4.60;;
22967;SDS011;11650;48.106;-1.696;2023-04-24T01:58:59;14.87;;;4.33;;
22967;SDS011;11650;48.106;-1.696;2023-04-24T02:01:27;11.97;;;4.70;;
22967;SDS011;11650;48.106;-1.696;2023-04-24T02:04:00;13.50;;;5.07;;
22967;SDS011;11650;48.106;-1.696;2023-04-24T02:06:25;9.93;;;4.67;;
22967;SDS011;11650;48.106;-1.696;2023-04-24T02:08:51;15.43;;;5.27;;
22967;SDS011;11650;48.106;-1.696;2023-04-24T02:11:17;11.43;;;4.73;;
22967;SDS011;11650;48.106;-1.696;2023-04-24T02:13:43;9.37;;;4.43;;
22967;SDS011;11650;48.106;-1.696;2023-04-24T02:16:09;13.77;;;4.77;;
22967;SDS011;11650;48.106;-1.696;2023-04-24T02:18:35;15.33;;;4.40;;
22967;SDS011;11650;48.106;-1.696;2023-04-24T02:21:01;14.83;;;4.93;;
22967;SDS011;11650;48.106;-1.696;2023-04-24T02:23:26;14.97;;;4.80;;
22967;SDS011;11650;48.106;-1.696;2023-04-24T02:25:52;13.70;;;4.10;;
22967;SDS011;11650;48.106;-1.696;2023-04-24T02:28:18;15.30;;;4.43;;
22967;SDS011;11650;48.106;-1.696;2023-04-24T02:30:44;12.87;;;4.47;;
22967;SDS011;11650;48.106;-1.696;2023-04-24T02:33:10;9.93;;;4.40;;
22967;SDS011;11650;48.106;-1.696;2023-04-24T02:35:36;10.17;;;4.30;;
22967;SDS011;11650;48.106;-1.696;2023-04-24T02:38:02;11.07;;;4.30;;
22967;SDS011;11650;48.106;-1.696;2023-04-24T02:40:28;11.53;;;4.07;;
22967;SDS011;11650;48.106;-1.696;2023-04-24T02:42:54;11.03;;;4.30;;
22967;SDS011;11650;48.106;-1.696;2023-04-24T02:45:20;8.33;;;3.90;;
22967;SDS011;11650;48.106;-1.696;2023-04-24T02:47:46;14.03;;;4.33;;
22967;SDS011;11650;48.106;-1.696;2023-04-24T02:50:11;13.73;;;4.07;;
22967;SDS011;11650;48.106;-1.696;2023-04-24T02:52:37;12.77;;;3.90;;
22967;SDS011;11650;48.106;-1.696;2023-04-24T02:55:02;14.33;;;4.30;;
22967;SDS011;11650;48.106;-1.696;2023-04-24T02:57:28;10.63;;;4.00;;
22967;SDS011;11650;48.106;-1.696;2023-04-24T02:59:54;15.73;;;4.30;;
22967;SDS011;11650;48.106;-1.696;2023-04-24T03:02:19;15.27;;;4.90;;
22967;SDS011;11650;48.106;-1.696;2023-04-24T03:04:45;12.00;;;4.40;;
22967;SDS011;11650;48.106;-1.696;2023-04-24T03:07:13;11.90;;;4.30;;
22967;SDS011;11650;48.106;-1.696;2023-04-24T03:09:42;10.73;;;3.77;;
22967;SDS011;11650;48.106;-1.696;2023-04-24T03:12:07;9.03;;;4.10;;
22967;SDS011;11650;48.106;-1.696;2023-04-24T03:14:33;12.03;;;4.23;;
22967;SDS011;11650;48.106;-1.696;2023-04-24T03:16:59;14.70;;;4.43;;
22967;SDS011;11650;48.106;-1.696;2023-04-24T03:19:25;13.00;;;3.90;;
22967;SDS011;11650;48.106;-1.696;2023-04-24T03:21:51;11.63;;;4.33;;
22967;SDS011;11650;48.106;-1.696;2023-04-24T03:24:16;9.87;;;4.00;;
22967;SDS011;11650;48.106;-1.696;2023-04-24T03:26:42;13.73;;;4.47;;
22967;SDS011;11650;48.106;-1.696;2023-04-24T03:29:07;11.23;;;3.97;;
22967;SDS011;11650;48.106;-1.696;2023-04-24T03:31:33;9.03;;;3.70;;
22967;SDS011;11650;48.106;-1.696;2023-04-24T03:33:59;12.57;;;4.00;;
22967;SDS011;11650;48.106;-1.696;2023-04-24T03:36:24;11.40;;;4.40;;
22967;SDS011;11650;48.106;-1.696;2023-04-24T03:38:51;9.77;;;3.87;;
22967;SDS011;11650;48.106;-1.696;2023-04-24T03:41:16;12.83;;;3.50;;
22967;SDS011;11650;48.106;-1.696;2023-04-24T03:43:42;10.63;;;4.10;;
22967;SDS011;11650;48.106;-1.696;2023-04-24T03:46:08;13.33;;;3.70;;
22967;SDS011;11650;48.106;-1.696;2023-04-24T03:48:34;14.13;;;4.10;;
22967;SDS011;11650;48.106;-1.696;2023-04-24T03:51:00;11.80;;;3.67;;
22967;SDS011;11650;48.106;-1.696;2023-04-24T03:53:26;10.63;;;4.07;;
22967;SDS011;11650;48.106;-1.696;2023-04-24T03:55:52;12.17;;;3.60;;
22967;SDS011;11650;48.106;-1.696;2023-04-24T03:58:18;15.20;;;4.17;;
22967;SDS011;11650;48.106;-1.696;2023-04-24T04:00:44;10.10;;;3.73;;
22967;SDS011;11650;48.106;-1.696;2023-04-24T04:03:11;11.03;;;3.80;;
22967;SDS011;11650;48.106;-1.696;2023-04-24T04:05:38;7.43;;;3.03;;
22967;SDS011;11650;48.106;-1.696;2023-04-24T04:08:04;14.13;;;4.20;;
22967;SDS011;11650;48.106;-1.696;2023-04-24T04:10:29;8.40;;;3.70;;
22967;SDS011;11650;48.106;-1.696;2023-04-24T04:12:55;10.63;;;4.03;;
22967;SDS011;11650;48.106;-1.696;2023-04-24T04:15:21;10.13;;;3.60;;
22967;SDS011;11650;48.106;-1.696;2023-04-24T04:17:46;7.77;;;3.50;;
22967;SDS011;11650;48.106;-1.696;2023-04-24T04:20:12;8.67;;;3.60;;
22967;SDS011;11650;48.106;-1.696;2023-04-24T04:22:38;10.40;;;3.67;;
22967;SDS011;11650;48.106;-1.696;2023-04-24T04:25:04;12.07;;;4.07;;
22967;SDS011;11650;48.106;-1.696;2023-04-24T04:27:30;7.63;;;3.40;;
22967;SDS011;11650;48.106;-1.696;2023-04-24T04:30:00;10.43;;;3.50;;
22967;SDS011;11650;48.106;-1.696;2023-04-24T04:32:30;15.00;;;4.13;;
22967;SDS011;11650;48.106;-1.696;2023-04-24T04:34:58;13.40;;;4.00;;
22967;SDS011;11650;48.106;-1.696;2023-04-24T04:37:28;14.20;;;3.70;;
22967;SDS011;11650;48.106;-1.696;2023-04-24T04:39:54;9.10;;;3.90;;
22967;SDS011;11650;48.106;-1.696;2023-04-24T04:42:20;9.97;;;3.60;;
22967;SDS011;11650;48.106;-1.696;2023-04-24T04:44:46;9.57;;;3.70;;
22967;SDS011;11650;48.106;-1.696;2023-04-24T04:47:11;8.60;;;4.13;;
22967;SDS011;11650;48.106;-1.696;2023-04-24T04:49:37;10.73;;;3.33;;
22967;SDS011;11650;48.106;-1.696;2023-04-24T04:52:03;14.77;;;4.20;;
22967;SDS011;11650;48.106;-1.696;2023-04-24T04:54:29;12.63;;;4.03;;
22967;SDS011;11650;48.106;-1.696;2023-04-24T04:56:55;10.93;;;3.83;;
22967;SDS011;11650;48.106;-1.696;2023-04-24T04:59:22;9.20;;;3.67;;
22967;SDS011;11650;48.106;-1.696;2023-04-24T05:01:48;9.73;;;3.87;;
22967;SDS011;11650;48.106;-1.696;2023-04-24T05:04:13;13.43;;;3.80;;
22967;SDS011;11650;48.106;-1.696;2023-04-24T05:06:39;11.57;;;4.13;;
22967;SDS011;11650;48.106;-1.696;2023-04-24T05:09:05;11.07;;;3.90;;
22967;SDS011;11650;48.106;-1.696;2023-04-24T05:11:32;9.23;;;3.47;;
22967;SDS011;11650;48.106;-1.696;2023-04-24T05:13:57;8.47;;;4.00;;
22967;SDS011;11650;48.106;-1.696;2023-04-24T05:16:23;9.90;;;3.77;;
22967;SDS011;11650;48.106;-1.696;2023-04-24T05:18:49;11.03;;;4.30;;
22967;SDS011;11650;48.106;-1.696;2023-04-24T05:21:14;8.73;;;4.07;;
22967;SDS011;11650;48.106;-1.696;2023-04-24T05:23:40;12.83;;;4.00;;
22967;SDS011;11650;48.106;-1.696;2023-04-24T05:26:06;12.33;;;3.97;;
22967;SDS011;11650;48.106;-1.696;2023-04-24T05:28:32;11.23;;;4.03;;
22967;SDS011;11650;48.106;-1.696;2023-04-24T05:30:57;9.33;;;3.43;;
22967;SDS011;11650;48.106;-1.696;2023-04-24T05:33:24;11.17;;;4.57;;
22967;SDS011;11650;48.106;-1.696;2023-04-24T05:35:50;10.67;;;4.40;;
22967;SDS011;11650;48.106;-1.696;2023-04-24T05:38:16;7.90;;;4.13;;
22967;SDS011;11650;48.106;-1.696;2023-04-24T05:40:44;18.40;;;4.30;;
22967;SDS011;11650;48.106;-1.696;2023-04-24T05:43:13;11.63;;;3.80;;
22967;SDS011;11650;48.106;-1.696;2023-04-24T05:45:38;13.27;;;3.97;;
22967;SDS011;11650;48.106;-1.696;2023-04-24T05:48:04;15.97;;;4.20;;
22967;SDS011;11650;48.106;-1.696;2023-04-24T05:50:30;13.00;;;3.73;;
22967;SDS011;11650;48.106;-1.696;2023-04-24T05:52:56;9.93;;;4.20;;
22967;SDS011;11650;48.106;-1.696;2023-04-24T05:55:26;13.03;;;4.40;;
22967;SDS011;11650;48.106;-1.696;2023-04-24T05:57:52;9.67;;;4.57;;
22967;SDS011;11650;48.106;-1.696;2023-04-24T06:00:18;12.53;;;4.40;;
22967;SDS011;11650;48.106;-1.696;2023-04-24T06:02:44;13.70;;;4.50;;
22967;SDS011;11650;48.106;-1.696;2023-04-24T06:05:11;20.87;;;4.87;;
22967;SDS011;11650;48.106;-1.696;2023-04-24T06:07:36;13.13;;;4.60;;
22967;SDS011;11650;48.106;-1.696;2023-04-24T06:10:02;12.37;;;4.03;;
22967;SDS011;11650;48.106;-1.696;2023-04-24T06:12:28;13.57;;;4.73;;
22967;SDS011;11650;48.106;-1.696;2023-04-24T06:14:54;11.60;;;4.50;;
22967;SDS011;11650;48.106;-1.696;2023-04-24T06:17:22;16.30;;;4.37;;
22967;SDS011;11650;48.106;-1.696;2023-04-24T06:19:48;11.80;;;4.30;;
22967;SDS011;11650;48.106;-1.696;2023-04-24T06:22:14;11.00;;;4.80;;
22967;SDS011;11650;48.106;-1.696;2023-04-24T06:24:40;11.90;;;4.53;;
22967;SDS011;11650;48.106;-1.696;2023-04-24T06:27:05;12.53;;;4.23;;
22967;SDS011;11650;48.106;-1.696;2023-04-24T06:29:32;11.17;;;3.83;;
22967;SDS011;11650;48.106;-1.696;2023-04-24T06:31:58;14.17;;;4.33;;
22967;SDS011;11650;48.106;-1.696;2023-04-24T06:34:24;14.10;;;4.10;;
22967;SDS011;11650;48.106;-1.696;2023-04-24T06:36:49;14.73;;;4.77;;
22967;SDS011;11650;48.106;-1.696;2023-04-24T06:39:15;11.37;;;4.23;;
22967;SDS011;11650;48.106;-1.696;2023-04-24T06:41:41;11.00;;;4.43;;
22967;SDS011;11650;48.106;-1.696;2023-04-24T06:44:07;11.73;;;4.00;;
22967;SDS011;11650;48.106;-1.696;2023-04-24T06:46:32;10.40;;;4.30;;
22967;SDS011;11650;48.106;-1.696;2023-04-24T06:48:58;8.83;;;4.10;;
22967;SDS011;11650;48.106;-1.696;2023-04-24T06:51:24;10.50;;;4.40;;
22967;SDS011;11650;48.106;-1.696;2023-04-24T06:53:51;10.80;;;4.07;;
22967;SDS011;11650;48.106;-1.696;2023-04-24T06:56:21;9.03;;;3.47;;
22967;SDS011;11650;48.106;-1.696;2023-04-24T06:58:47;15.40;;;4.70;;
22967;SDS011;11650;48.106;-1.696;2023-04-24T07:01:13;9.53;;;4.07;;
22967;SDS011;11650;48.106;-1.696;2023-04-24T07:03:38;10.23;;;3.93;;
22967;SDS011;11650;48.106;-1.696;2023-04-24T07:06:04;9.87;;;3.40;;
22967;SDS011;11650;48.106;-1.696;2023-04-24T07:08:30;15.00;;;3.83;;
22967;SDS011;11650;48.106;-1.696;2023-04-24T07:10:58;13.50;;;5.07;;
22967;SDS011;11650;48.106;-1.696;2023-04-24T07:13:24;8.27;;;3.90;;
22967;SDS011;11650;48.106;-1.696;2023-04-24T07:15:51;14.43;;;3.70;;
22967;SDS011;11650;48.106;-1.696;2023-04-24T07:18:18;8.80;;;3.83;;
22967;SDS011;11650;48.106;-1.696;2023-04-24T07:20:45;7.53;;;3.73;;
22967;SDS011;11650;48.106;-1.696;2023-04-24T07:23:10;9.57;;;4.00;;
22967;SDS011;11650;48.106;-1.696;2023-04-24T07:25:36;9.97;;;3.53;;
22967;SDS011;11650;48.106;-1.696;2023-04-24T07:28:03;10.77;;;3.50;;
22967;SDS011;11650;48.106;-1.696;2023-04-24T07:30:29;8.50;;;3.50;;
22967;SDS011;11650;48.106;-1.696;2023-04-24T07:32:55;7.27;;;2.90;;
22967;SDS011;11650;48.106;-1.696;2023-04-24T07:35:21;9.60;;;3.27;;
22967;SDS011;11650;48.106;-1.696;2023-04-24T07:37:47;8.97;;;3.10;;
22967;SDS011;11650;48.106;-1.696;2023-04-24T07:40:13;9.37;;;3.30;;
22967;SDS011;11650;48.106;-1.696;2023-04-24T07:42:39;8.33;;;3.23;;
22967;SDS011;11650;48.106;-1.696;2023-04-24T07:45:05;11.43;;;3.20;;
22967;SDS011;11650;48.106;-1.696;2023-04-24T07:47:31;8.57;;;3.23;;
22967;SDS011;11650;48.106;-1.696;2023-04-24T07:49:57;8.90;;;3.20;;
22967;SDS011;11650;48.106;-1.696;2023-04-24T07:52:24;6.07;;;3.10;;
22967;SDS011;11650;48.106;-1.696;2023-04-24T07:54:50;6.90;;;3.10;;
22967;SDS011;11650;48.106;-1.696;2023-04-24T07:57:17;10.37;;;3.70;;
22967;SDS011;11650;48.106;-1.696;2023-04-24T07:59:43;6.43;;;2.90;;
22967;SDS011;11650;48.106;-1.696;2023-04-24T08:02:09;8.93;;;3.70;;
22967;SDS011;11650;48.106;-1.696;2023-04-24T08:04:35;8.47;;;3.63;;
22967;SDS011;11650;48.106;-1.696;2023-04-24T08:07:00;7.60;;;3.27;;
22967;SDS011;11650;48.106;-1.696;2023-04-24T08:09:26;7.97;;;3.10;;
22967;SDS011;11650;48.106;-1.696;2023-04-24T08:11:51;7.70;;;3.30;;
22967;SDS011;11650;48.106;-1.696;2023-04-24T08:14:18;8.83;;;3.40;;
22967;SDS011;11650;48.106;-1.696;2023-04-24T08:16:43;6.40;;;3.20;;
22967;SDS011;11650;48.106;-1.696;2023-04-24T08:19:09;8.23;;;3.37;;
22967;SDS011;11650;48.106;-1.696;2023-04-24T08:21:35;5.97;;;3.10;;
22967;SDS011;11650;48.106;-1.696;2023-04-24T08:24:00;7.60;;;3.03;;
22967;SDS011;11650;48.106;-1.696;2023-04-24T08:26:30;5.37;;;2.90;;
22967;SDS011;11650;48.106;-1.696;2023-04-24T08:28:55;7.57;;;3.20;;
22967;SDS011;11650;48.106;-1.696;2023-04-24T08:31:21;7.53;;;3.50;;
22967;SDS011;11650;48.106;-1.696;2023-04-24T08:33:47;7.93;;;3.20;;
22967;SDS011;11650;48.106;-1.696;2023-04-24T08:36:13;6.97;;;2.83;;
22967;SDS011;11650;48.106;-1.696;2023-04-24T08:38:39;6.17;;;3.27;;
22967;SDS011;11650;48.106;-1.696;2023-04-24T08:41:05;7.40;;;3.60;;
22967;SDS011;11650;48.106;-1.696;2023-04-24T08:43:32;10.93;;;4.40;;
22967;SDS011;11650;48.106;-1.696;2023-04-24T08:46:01;5.00;;;2.77;;
22967;SDS011;11650;48.106;-1.696;2023-04-24T08:48:28;10.30;;;3.23;;
22967;SDS011;11650;48.106;-1.696;2023-04-24T08:50:55;6.17;;;3.07;;
22967;SDS011;11650;48.106;-1.696;2023-04-24T08:53:21;7.47;;;2.40;;
22967;SDS011;11650;48.106;-1.696;2023-04-24T08:55:48;6.27;;;2.70;;
22967;SDS011;11650;48.106;-1.696;2023-04-24T08:58:16;8.70;;;2.60;;
22967;SDS011;11650;48.106;-1.696;2023-04-24T09:00:43;4.80;;;3.07;;
22967;SDS011;11650;48.106;-1.696;2023-04-24T09:03:11;8.07;;;2.87;;
22967;SDS011;11650;48.106;-1.696;2023-04-24T09:05:39;7.10;;;2.80;;
22967;SDS011;11650;48.106;-1.696;2023-04-24T09:08:10;13.53;;;3.10;;
22967;SDS011;11650;48.106;-1.696;2023-04-24T09:10:38;5.97;;;2.40;;
22967;SDS011;11650;48.106;-1.696;2023-04-24T09:13:05;8.50;;;3.00;;
22967;SDS011;11650;48.106;-1.696;2023-04-24T09:15:31;6.40;;;2.37;;
22967;SDS011;11650;48.106;-1.696;2023-04-24T09:17:56;6.30;;;2.73;;
22967;SDS011;11650;48.106;-1.696;2023-04-24T09:20:22;7.33;;;2.63;;
22967;SDS011;11650;48.106;-1.696;2023-04-24T09:22:48;8.23;;;2.87;;
22967;SDS011;11650;48.106;-1.696;2023-04-24T09:25:20;12.90;;;3.40;;
22967;SDS011;11650;48.106;-1.696;2023-04-24T09:27:47;13.60;;;3.37;;
22967;SDS011;11650;48.106;-1.696;2023-04-24T09:30:13;8.23;;;3.17;;
22967;SDS011;11650;48.106;-1.696;2023-04-24T09:32:45;10.50;;;2.97;;
22967;SDS011;11650;48.106;-1.696;2023-04-24T09:35:12;7.97;;;2.97;;
22967;SDS011;11650;48.106;-1.696;2023-04-24T09:37:40;9.53;;;3.07;;
22967;SDS011;11650;48.106;-1.696;2023-04-24T09:40:28;9.50;;;2.90;;
22967;SDS011;11650;48.106;-1.696;2023-04-24T09:42:54;17.47;;;3.57;;
22967;SDS011;11650;48.106;-1.696;2023-04-24T09:45:22;14.13;;;3.20;;
22967;SDS011;11650;48.106;-1.696;2023-04-24T09:48:14;10.70;;;3.20;;
22967;SDS011;11650;48.106;-1.696;2023-04-24T09:50:40;11.83;;;3.00;;
22967;SDS011;11650;48.106;-1.696;2023-04-24T09:53:12;13.87;;;3.50;;
22967;SDS011;11650;48.106;-1.696;2023-04-24T09:55:42;12.40;;;3.33;;
22967;SDS011;11650;48.106;-1.696;2023-04-24T09:58:11;15.07;;;3.30;;
22967;SDS011;11650;48.106;-1.696;2023-04-24T10:00:36;9.90;;;3.07;;
22967;SDS011;11650;48.106;-1.696;2023-04-24T10:03:03;8.27;;;2.90;;
22967;SDS011;11650;48.106;-1.696;2023-04-24T10:05:30;11.37;;;2.83;;
22967;SDS011;11650;48.106;-1.696;2023-04-24T10:08:00;9.80;;;2.97;;
22967;SDS011;11650;48.106;-1.696;2023-04-24T10:10:28;12.47;;;3.30;;
22967;SDS011;11650;48.106;-1.696;2023-04-24T10:12:54;8.93;;;2.30;;
22967;SDS011;11650;48.106;-1.696;2023-04-24T10:15:21;7.87;;;2.70;;
22967;SDS011;11650;48.106;-1.696;2023-04-24T10:17:48;8.17;;;2.73;;
22967;SDS011;11650;48.106;-1.696;2023-04-24T10:20:21;12.90;;;3.23;;
22967;SDS011;11650;48.106;-1.696;2023-04-24T10:22:49;8.00;;;2.50;;
22967;SDS011;11650;48.106;-1.696;2023-04-24T10:25:20;8.43;;;2.80;;
22967;SDS011;11650;48.106;-1.696;2023-04-24T10:27:47;8.57;;;2.83;;
22967;SDS011;11650;48.106;-1.696;2023-04-24T10:30:13;8.07;;;2.87;;
22967;SDS011;11650;48.106;-1.696;2023-04-24T10:32:39;14.20;;;2.73;;
22967;SDS011;11650;48.106;-1.696;2023-04-24T10:35:06;10.03;;;3.00;;
22967;SDS011;11650;48.106;-1.696;2023-04-24T10:37:43;11.00;;;3.00;;
22967;SDS011;11650;48.106;-1.696;2023-04-24T10:40:31;11.03;;;2.80;;
22967;SDS011;11650;48.106;-1.696;2023-04-24T10:42:59;11.73;;;2.90;;
22967;SDS011;11650;48.106;-1.696;2023-04-24T10:45:28;11.33;;;3.23;;
22967;SDS011;11650;48.106;-1.696;2023-04-24T10:47:57;9.17;;;2.30;;
22967;SDS011;11650;48.106;-1.696;2023-04-24T10:50:26;9.83;;;3.27;;
22967;SDS011;11650;48.106;-1.696;2023-04-24T10:52:53;9.37;;;3.23;;
22967;SDS011;11650;48.106;-1.696;2023-04-24T10:55:42;11.47;;;2.83;;
22967;SDS011;11650;48.106;-1.696;2023-04-24T10:58:10;7.43;;;2.60;;
22967;SDS011;11650;48.106;-1.696;2023-04-24T11:00:37;7.87;;;2.53;;
22967;SDS011;11650;48.106;-1.696;2023-04-24T11:03:05;9.67;;;2.43;;
22967;SDS011;11650;48.106;-1.696;2023-04-24T11:05:51;8.30;;;2.90;;
22967;SDS011;11650;48.106;-1.696;2023-04-24T11:08:22;13.13;;;2.70;;
22967;SDS011;11650;48.106;-1.696;2023-04-24T11:10:56;13.87;;;3.47;;
22967;SDS011;11650;48.106;-1.696;2023-04-24T11:16:52;9.60;;;2.70;;
22967;SDS011;11650;48.106;-1.696;2023-04-24T11:19:26;10.80;;;2.07;;
22967;SDS011;11650;48.106;-1.696;2023-04-24T11:22:03;6.73;;;2.60;;
22967;SDS011;11650;48.106;-1.696;2023-04-24T11:24:39;9.57;;;2.87;;
22967;SDS011;11650;48.106;-1.696;2023-04-24T11:29:48;9.90;;;3.33;;
22967;SDS011;11650;48.106;-1.696;2023-04-24T11:37:22;13.10;;;3.23;;
22967;SDS011;11650;48.106;-1.696;2023-04-24T11:39:58;9.37;;;2.80;;
22967;SDS011;11650;48.106;-1.696;2023-04-24T11:42:24;16.20;;;3.30;;
22967;SDS011;11650;48.106;-1.696;2023-04-24T11:44:52;8.47;;;2.37;;
22967;SDS011;11650;48.106;-1.696;2023-04-24T11:47:19;7.20;;;2.37;;
22967;SDS011;11650;48.106;-1.696;2023-04-24T11:49:45;14.30;;;2.60;;
22967;SDS011;11650;48.106;-1.696;2023-04-24T11:52:11;7.97;;;2.40;;
22967;SDS011;11650;48.106;-1.696;2023-04-24T11:54:46;10.93;;;2.27;;
22967;SDS011;11650;48.106;-1.696;2023-04-24T11:57:15;12.50;;;2.50;;
22967;SDS011;11650;48.106;-1.696;2023-04-24T11:59:42;7.13;;;2.10;;
22967;SDS011;11650;48.106;-1.696;2023-04-24T12:02:07;5.77;;;2.20;;
22967;SDS011;11650;48.106;-1.696;2023-04-24T12:04:39;12.23;;;2.97;;
22967;SDS011;11650;48.106;-1.696;2023-04-24T12:07:06;10.20;;;2.60;;
22967;SDS011;11650;48.106;-1.696;2023-04-24T12:12:34;8.27;;;2.40;;
22967;SDS011;11650;48.106;-1.696;2023-04-24T12:15:00;7.17;;;2.47;;
22967;SDS011;11650;48.106;-1.696;2023-04-24T12:17:32;6.83;;;2.50;;
22967;SDS011;11650;48.106;-1.696;2023-04-24T12:19:59;11.40;;;2.50;;
22967;SDS011;11650;48.106;-1.696;2023-04-24T12:22:26;6.13;;;2.23;;
22967;SDS011;11650;48.106;-1.696;2023-04-24T12:25:10;8.57;;;2.13;;
22967;SDS011;11650;48.106;-1.696;2023-04-24T12:27:37;7.90;;;2.10;;
22967;SDS011;11650;48.106;-1.696;2023-04-24T12:30:03;8.27;;;2.60;;
22967;SDS011;11650;48.106;-1.696;2023-04-24T12:32:30;8.27;;;2.20;;
22967;SDS011;11650;48.106;-1.696;2023-04-24T12:34:57;8.33;;;2.10;;
22967;SDS011;11650;48.106;-1.696;2023-04-24T12:37:26;9.93;;;2.53;;
22967;SDS011;11650;48.106;-1.696;2023-04-24T12:42:33;7.73;;;2.53;;
22967;SDS011;11650;48.106;-1.696;2023-04-24T12:45:00;7.27;;;2.70;;
22967;SDS011;11650;48.106;-1.696;2023-04-24T12:47:30;7.97;;;2.20;;
22967;SDS011;11650;48.106;-1.696;2023-04-24T12:49:57;8.77;;;2.40;;
22967;SDS011;11650;48.106;-1.696;2023-04-24T12:52:24;8.67;;;2.70;;
22967;SDS011;11650;48.106;-1.696;2023-04-24T12:54:54;9.07;;;2.43;;
22967;SDS011;11650;48.106;-1.696;2023-04-24T12:57:22;7.73;;;2.20;;
22967;SDS011;11650;48.106;-1.696;2023-04-24T12:59:49;9.13;;;2.40;;
22967;SDS011;11650;48.106;-1.696;2023-04-24T13:02:15;8.77;;;2.20;;
22967;SDS011;11650;48.106;-1.696;2023-04-24T13:04:45;8.63;;;2.40;;
22967;SDS011;11650;48.106;-1.696;2023-04-24T13:07:12;10.00;;;2.60;;
22967;SDS011;11650;48.106;-1.696;2023-04-24T13:09:41;7.93;;;2.50;;
22967;SDS011;11650;48.106;-1.696;2023-04-24T13:12:08;10.17;;;2.83;;
22967;SDS011;11650;48.106;-1.696;2023-04-24T13:14:34;11.23;;;2.90;;
22967;SDS011;11650;48.106;-1.696;2023-04-24T13:17:00;9.17;;;2.30;;
22967;SDS011;11650;48.106;-1.696;2023-04-24T13:19:26;11.60;;;2.47;;
22967;SDS011;11650;48.106;-1.696;2023-04-24T13:21:52;5.67;;;2.40;;
22967;SDS011;11650;48.106;-1.696;2023-04-24T13:24:20;6.93;;;2.50;;
22967;SDS011;11650;48.106;-1.696;2023-04-24T13:26:45;9.33;;;2.47;;
22967;SDS011;11650;48.106;-1.696;2023-04-24T13:29:11;7.30;;;2.20;;
22967;SDS011;11650;48.106;-1.696;2023-04-24T13:31:37;10.97;;;2.80;;
22967;SDS011;11650;48.106;-1.696;2023-04-24T13:34:02;5.30;;;2.13;;
22967;SDS011;11650;48.106;-1.696;2023-04-24T13:36:28;9.03;;;2.30;;
22967;SDS011;11650;48.106;-1.696;2023-04-24T13:38:55;7.33;;;2.30;;
22967;SDS011;11650;48.106;-1.696;2023-04-24T13:41:21;11.83;;;2.53;;
22967;SDS011;11650;48.106;-1.696;2023-04-24T13:43:47;8.93;;;2.63;;
22967;SDS011;11650;48.106;-1.696;2023-04-24T13:46:12;12.83;;;2.70;;
22967;SDS011;11650;48.106;-1.696;2023-04-24T13:48:38;10.57;;;2.63;;
22967;SDS011;11650;48.106;-1.696;2023-04-24T13:51:03;10.80;;;2.47;;
22967;SDS011;11650;48.106;-1.696;2023-04-24T13:53:29;9.63;;;2.37;;
22967;SDS011;11650;48.106;-1.696;2023-04-24T13:55:55;8.23;;;2.17;;
22967;SDS011;11650;48.106;-1.696;2023-04-24T13:58:20;9.40;;;2.50;;
22967;SDS011;11650;48.106;-1.696;2023-04-24T14:00:46;12.60;;;2.40;;
22967;SDS011;11650;48.106;-1.696;2023-04-24T14:03:12;8.87;;;2.33;;
22967;SDS011;11650;48.106;-1.696;2023-04-24T14:05:37;12.53;;;2.87;;
22967;SDS011;11650;48.106;-1.696;2023-04-24T14:08:03;9.43;;;2.30;;
22967;SDS011;11650;48.106;-1.696;2023-04-24T14:10:29;9.40;;;2.43;;
22967;SDS011;11650;48.106;-1.696;2023-04-24T14:12:55;8.70;;;2.70;;
22967;SDS011;11650;48.106;-1.696;2023-04-24T14:15:21;12.47;;;3.03;;
22967;SDS011;11650;48.106;-1.696;2023-04-24T14:17:47;10.40;;;2.73;;
22967;SDS011;11650;48.106;-1.696;2023-04-24T14:20:13;8.83;;;2.50;;
22967;SDS011;11650;48.106;-1.696;2023-04-24T14:22:39;9.37;;;2.40;;
22967;SDS011;11650;48.106;-1.696;2023-04-24T14:25:05;11.47;;;3.13;;
22967;SDS011;11650;48.106;-1.696;2023-04-24T14:27:31;10.83;;;3.37;;
22967;SDS011;11650;48.106;-1.696;2023-04-24T14:29:57;13.00;;;3.00;;
22967;SDS011;11650;48.106;-1.696;2023-04-24T14:32:23;10.77;;;3.83;;
22967;SDS011;11650;48.106;-1.696;2023-04-24T14:34:48;15.23;;;3.53;;
22967;SDS011;11650;48.106;-1.696;2023-04-24T14:37:14;21.87;;;4.40;;
22967;SDS011;11650;48.106;-1.696;2023-04-24T14:39:40;18.20;;;4.03;;
22967;SDS011;11650;48.106;-1.696;2023-04-24T14:42:06;13.90;;;3.27;;
22967;SDS011;11650;48.106;-1.696;2023-04-24T14:44:31;11.90;;;3.30;;